sensor_id;sensor_type;location;lat;lon;timestamp;P1;durP1;ratioP1;P2;durP2;ratioP2
69937;SDS011;57248;47.320;15.998;2024-03-23T00:53:32;4.30;;;1.27;;
69937;SDS011;57248;47.320;15.998;2024-03-23T00:56:05;4.13;;;0.82;;
69937;SDS011;57248;47.320;15.998;2024-03-23T00:58:37;4.75;;;0.98;;
69937;SDS011;57248;47.320;15.998;2024-03-23T01:01:09;2.33;;;0.65;;
69937;SDS011;57248;47.320;15.998;2024-03-23T01:03:41;3.50;;;0.82;;
69937;SDS011;57248;47.320;15.998;2024-03-23T01:06:13;2.77;;;0.60;;
69937;SDS011;57248;47.320;15.998;2024-03-23T01:08:45;3.35;;;0.55;;
69937;SDS011;57248;47.320;15.998;2024-03-23T01:11:24;3.40;;;0.93;;
69937;SDS011;57248;47.320;15.998;2024-03-23T01:13:56;3.10;;;1.13;;
69937;SDS011;57248;47.320;15.998;2024-03-23T01:16:30;2.83;;;0.90;;
69937;SDS011;57248;47.320;15.998;2024-03-23T01:19:01;2.80;;;0.77;;
69937;SDS011;57248;47.320;15.998;2024-03-23T01:21:34;2.42;;;0.77;;
69937;SDS011;57248;47.320;15.998;2024-03-23T01:24:00;3.15;;;0.75;;
69937;SDS011;57248;47.320;15.998;2024-03-23T01:26:32;2.97;;;0.65;;
69937;SDS011;57248;47.320;15.998;2024-03-23T01:29:04;4.25;;;1.00;;
69937;SDS011;57248;47.320;15.998;2024-03-23T01:31:43;4.73;;;1.13;;
69937;SDS011;57248;47.320;15.998;2024-03-23T01:34:15;3.88;;;0.93;;
69937;SDS011;57248;47.320;15.998;2024-03-23T01:36:47;3.35;;;0.73;;
69937;SDS011;57248;47.320;15.998;2024-03-23T01:39:19;3.78;;;0.75;;
69937;SDS011;57248;47.320;15.998;2024-03-23T01:41:51;3.15;;;0.65;;
69937;SDS011;57248;47.320;15.998;2024-03-23T01:44:23;3.03;;;0.90;;
69937;SDS011;57248;47.320;15.998;2024-03-23T01:46:55;3.85;;;0.55;;
69937;SDS011;57248;47.320;15.998;2024-03-23T01:49:27;2.33;;;0.38;;
69937;SDS011;57248;47.320;15.998;2024-03-23T01:51:59;2.42;;;0.47;;
69937;SDS011;57248;47.320;15.998;2024-03-23T01:54:31;4.15;;;0.70;;
69937;SDS011;57248;47.320;15.998;2024-03-23T01:57:04;4.60;;;0.70;;
69937;SDS011;57248;47.320;15.998;2024-03-23T01:59:36;3.15;;;0.50;;
69937;SDS011;57248;47.320;15.998;2024-03-23T02:02:09;3.25;;;1.02;;
69937;SDS011;57248;47.320;15.998;2024-03-23T02:04:41;3.72;;;0.95;;
69937;SDS011;57248;47.320;15.998;2024-03-23T02:07:13;3.55;;;1.20;;
69937;SDS011;57248;47.320;15.998;2024-03-23T02:09:45;2.20;;;0.77;;
69937;SDS011;57248;47.320;15.998;2024-03-23T02:12:17;3.67;;;0.68;;
69937;SDS011;57248;47.320;15.998;2024-03-23T02:14:49;2.38;;;0.40;;
69937;SDS011;57248;47.320;15.998;2024-03-23T02:17:22;2.80;;;0.75;;
69937;SDS011;57248;47.320;15.998;2024-03-23T02:19:48;3.03;;;0.23;;
69937;SDS011;57248;47.320;15.998;2024-03-23T02:22:20;2.10;;;0.68;;
69937;SDS011;57248;47.320;15.998;2024-03-23T02:24:52;2.45;;;0.98;;
69937;SDS011;57248;47.320;15.998;2024-03-23T02:27:25;3.65;;;1.20;;
69937;SDS011;57248;47.320;15.998;2024-03-23T02:29:57;2.78;;;0.82;;
69937;SDS011;57248;47.320;15.998;2024-03-23T02:32:29;2.50;;;0.53;;
69937;SDS011;57248;47.320;15.998;2024-03-23T02:35:03;4.43;;;1.00;;
69937;SDS011;57248;47.320;15.998;2024-03-23T02:37:36;2.67;;;0.80;;
69937;SDS011;57248;47.320;15.998;2024-03-23T02:40:08;1.88;;;0.63;;
69937;SDS011;57248;47.320;15.998;2024-03-23T02:42:40;3.30;;;0.68;;
69937;SDS011;57248;47.320;15.998;2024-03-23T02:45:12;3.50;;;1.00;;
69937;SDS011;57248;47.320;15.998;2024-03-23T02:47:46;1.85;;;0.60;;
69937;SDS011;57248;47.320;15.998;2024-03-23T02:50:20;1.60;;;0.55;;
69937;SDS011;57248;47.320;15.998;2024-03-23T02:52:52;2.03;;;0.40;;
69937;SDS011;57248;47.320;15.998;2024-03-23T02:55:24;3.13;;;1.05;;
69937;SDS011;57248;47.320;15.998;2024-03-23T02:57:56;2.07;;;0.70;;
69937;SDS011;57248;47.320;15.998;2024-03-23T03:00:32;1.92;;;0.30;;
69937;SDS011;57248;47.320;15.998;2024-03-23T03:02:58;1.93;;;0.30;;
69937;SDS011;57248;47.320;15.998;2024-03-23T03:05:30;3.05;;;0.63;;
69937;SDS011;57248;47.320;15.998;2024-03-23T03:08:02;2.10;;;0.50;;
69937;SDS011;57248;47.320;15.998;2024-03-23T03:10:34;2.78;;;0.50;;
69937;SDS011;57248;47.320;15.998;2024-03-23T03:13:14;3.10;;;0.57;;
69937;SDS011;57248;47.320;15.998;2024-03-23T03:15:46;1.67;;;0.27;;
69937;SDS011;57248;47.320;15.998;2024-03-23T03:18:18;1.80;;;0.22;;
69937;SDS011;57248;47.320;15.998;2024-03-23T03:20:53;1.25;;;0.25;;
69937;SDS011;57248;47.320;15.998;2024-03-23T03:23:26;1.95;;;0.35;;
69937;SDS011;57248;47.320;15.998;2024-03-23T03:25:58;2.17;;;0.30;;
69937;SDS011;57248;47.320;15.998;2024-03-23T03:28:24;2.77;;;0.60;;
69937;SDS011;57248;47.320;15.998;2024-03-23T03:30:58;2.60;;;0.68;;
69937;SDS011;57248;47.320;15.998;2024-03-23T03:33:32;2.65;;;0.70;;
69937;SDS011;57248;47.320;15.998;2024-03-23T03:36:04;1.67;;;0.50;;
69937;SDS011;57248;47.320;15.998;2024-03-23T03:38:36;3.03;;;0.47;;
69937;SDS011;57248;47.320;15.998;2024-03-23T03:41:09;1.15;;;0.20;;
69937;SDS011;57248;47.320;15.998;2024-03-23T03:43:35;2.00;;;0.33;;
69937;SDS011;57248;47.320;15.998;2024-03-23T03:46:07;4.95;;;0.80;;
69937;SDS011;57248;47.320;15.998;2024-03-23T03:48:39;2.08;;;0.45;;
69937;SDS011;57248;47.320;15.998;2024-03-23T03:51:11;2.92;;;0.40;;
69937;SDS011;57248;47.320;15.998;2024-03-23T03:53:43;2.17;;;0.57;;
69937;SDS011;57248;47.320;15.998;2024-03-23T03:56:16;2.00;;;0.43;;
69937;SDS011;57248;47.320;15.998;2024-03-23T03:58:48;2.70;;;0.57;;
69937;SDS011;57248;47.320;15.998;2024-03-23T04:01:19;1.75;;;0.35;;
69937;SDS011;57248;47.320;15.998;2024-03-23T04:03:51;1.88;;;0.35;;
69937;SDS011;57248;47.320;15.998;2024-03-23T04:06:23;1.73;;;0.47;;
69937;SDS011;57248;47.320;15.998;2024-03-23T04:08:49;3.05;;;0.30;;
69937;SDS011;57248;47.320;15.998;2024-03-23T04:11:21;3.15;;;0.55;;
69937;SDS011;57248;47.320;15.998;2024-03-23T04:13:54;2.10;;;0.40;;
69937;SDS011;57248;47.320;15.998;2024-03-23T04:16:34;2.38;;;0.50;;
69937;SDS011;57248;47.320;15.998;2024-03-23T04:19:06;2.25;;;0.35;;
69937;SDS011;57248;47.320;15.998;2024-03-23T04:21:38;2.53;;;0.68;;
69937;SDS011;57248;47.320;15.998;2024-03-23T04:24:10;2.35;;;0.60;;
69937;SDS011;57248;47.320;15.998;2024-03-23T04:26:43;4.10;;;0.93;;
69937;SDS011;57248;47.320;15.998;2024-03-23T04:29:09;1.75;;;0.52;;
69937;SDS011;57248;47.320;15.998;2024-03-23T04:31:41;1.27;;;0.53;;
69937;SDS011;57248;47.320;15.998;2024-03-23T04:34:13;2.03;;;0.60;;
69937;SDS011;57248;47.320;15.998;2024-03-23T04:36:45;3.00;;;0.82;;
69937;SDS011;57248;47.320;15.998;2024-03-23T04:39:17;2.25;;;0.52;;
69937;SDS011;57248;47.320;15.998;2024-03-23T04:41:50;4.30;;;0.90;;
69937;SDS011;57248;47.320;15.998;2024-03-23T04:44:23;1.87;;;0.57;;
69937;SDS011;57248;47.320;15.998;2024-03-23T04:46:55;2.03;;;0.40;;
69937;SDS011;57248;47.320;15.998;2024-03-23T04:49:28;3.22;;;0.50;;
69937;SDS011;57248;47.320;15.998;2024-03-23T04:52:00;1.92;;;0.60;;
69937;SDS011;57248;47.320;15.998;2024-03-23T04:54:32;4.35;;;0.90;;
69937;SDS011;57248;47.320;15.998;2024-03-23T04:57:04;2.20;;;0.50;;
69937;SDS011;57248;47.320;15.998;2024-03-23T04:59:36;2.30;;;0.43;;
69937;SDS011;57248;47.320;15.998;2024-03-23T05:02:08;2.13;;;0.38;;
69937;SDS011;57248;47.320;15.998;2024-03-23T05:04:35;2.27;;;0.30;;
69937;SDS011;57248;47.320;15.998;2024-03-23T05:07:08;2.35;;;0.35;;
69937;SDS011;57248;47.320;15.998;2024-03-23T05:09:40;1.15;;;0.20;;
69937;SDS011;57248;47.320;15.998;2024-03-23T05:12:19;3.25;;;0.82;;
69937;SDS011;57248;47.320;15.998;2024-03-23T05:14:58;2.38;;;0.73;;
69937;SDS011;57248;47.320;15.998;2024-03-23T05:17:31;3.07;;;0.83;;
69937;SDS011;57248;47.320;15.998;2024-03-23T05:20:12;3.97;;;0.57;;
69937;SDS011;57248;47.320;15.998;2024-03-23T05:22:45;3.65;;;0.80;;
69937;SDS011;57248;47.320;15.998;2024-03-23T05:25:17;4.88;;;0.50;;
69937;SDS011;57248;47.320;15.998;2024-03-23T05:27:49;1.85;;;0.50;;
69937;SDS011;57248;47.320;15.998;2024-03-23T05:30:23;1.37;;;0.27;;
69937;SDS011;57248;47.320;15.998;2024-03-23T05:32:48;3.10;;;1.08;;
69937;SDS011;57248;47.320;15.998;2024-03-23T05:35:20;5.07;;;1.33;;
69937;SDS011;57248;47.320;15.998;2024-03-23T05:37:52;4.90;;;0.98;;
69937;SDS011;57248;47.320;15.998;2024-03-23T05:40:27;2.28;;;0.65;;
69937;SDS011;57248;47.320;15.998;2024-03-23T05:42:59;3.17;;;0.60;;
69937;SDS011;57248;47.320;15.998;2024-03-23T05:45:34;3.03;;;0.70;;
69937;SDS011;57248;47.320;15.998;2024-03-23T05:48:13;3.53;;;0.68;;
69937;SDS011;57248;47.320;15.998;2024-03-23T05:50:46;5.38;;;1.17;;
69937;SDS011;57248;47.320;15.998;2024-03-23T05:53:19;2.65;;;0.60;;
69937;SDS011;57248;47.320;15.998;2024-03-23T05:56:04;3.43;;;0.93;;
69937;SDS011;57248;47.320;15.998;2024-03-23T05:58:36;2.60;;;0.82;;
69937;SDS011;57248;47.320;15.998;2024-03-23T06:01:08;3.33;;;0.70;;
69937;SDS011;57248;47.320;15.998;2024-03-23T06:03:41;2.67;;;0.70;;
69937;SDS011;57248;47.320;15.998;2024-03-23T06:06:15;3.20;;;0.93;;
69937;SDS011;57248;47.320;15.998;2024-03-23T06:08:48;4.17;;;1.03;;
69937;SDS011;57248;47.320;15.998;2024-03-23T06:11:20;4.22;;;1.17;;
69937;SDS011;57248;47.320;15.998;2024-03-23T06:13:59;4.22;;;0.98;;
69937;SDS011;57248;47.320;15.998;2024-03-23T06:16:31;3.90;;;1.00;;
69937;SDS011;57248;47.320;15.998;2024-03-23T06:19:04;4.15;;;0.88;;
69937;SDS011;57248;47.320;15.998;2024-03-23T06:21:42;5.23;;;1.10;;
69937;SDS011;57248;47.320;15.998;2024-03-23T06:24:16;3.03;;;0.60;;
69937;SDS011;57248;47.320;15.998;2024-03-23T06:26:48;4.20;;;1.13;;
69937;SDS011;57248;47.320;15.998;2024-03-23T06:29:21;6.80;;;1.38;;
69937;SDS011;57248;47.320;15.998;2024-03-23T06:31:54;6.05;;;1.42;;
69937;SDS011;57248;47.320;15.998;2024-03-23T06:34:26;4.50;;;1.30;;
69937;SDS011;57248;47.320;15.998;2024-03-23T06:36:58;4.47;;;1.00;;
69937;SDS011;57248;47.320;15.998;2024-03-23T06:39:30;9.90;;;1.95;;
69937;SDS011;57248;47.320;15.998;2024-03-23T06:42:04;7.40;;;2.38;;
69937;SDS011;57248;47.320;15.998;2024-03-23T06:44:36;5.60;;;1.80;;
69937;SDS011;57248;47.320;15.998;2024-03-23T06:47:08;6.23;;;2.10;;
69937;SDS011;57248;47.320;15.998;2024-03-23T06:49:40;9.63;;;1.80;;
69937;SDS011;57248;47.320;15.998;2024-03-23T06:52:14;4.55;;;1.60;;
69937;SDS011;57248;47.320;15.998;2024-03-23T06:54:46;5.28;;;1.63;;
69937;SDS011;57248;47.320;15.998;2024-03-23T06:57:20;5.15;;;1.90;;
69937;SDS011;57248;47.320;15.998;2024-03-23T06:59:58;5.03;;;1.87;;
69937;SDS011;57248;47.320;15.998;2024-03-23T07:02:30;6.82;;;2.47;;
69937;SDS011;57248;47.320;15.998;2024-03-23T07:05:03;5.60;;;1.90;;
69937;SDS011;57248;47.320;15.998;2024-03-23T07:07:37;5.63;;;1.98;;
69937;SDS011;57248;47.320;15.998;2024-03-23T07:10:10;6.28;;;2.15;;
69937;SDS011;57248;47.320;15.998;2024-03-23T07:12:43;3.93;;;1.40;;
69937;SDS011;57248;47.320;15.998;2024-03-23T07:15:23;4.70;;;1.90;;
69937;SDS011;57248;47.320;15.998;2024-03-23T07:17:55;4.53;;;1.80;;
69937;SDS011;57248;47.320;15.998;2024-03-23T07:20:29;4.32;;;1.10;;
69937;SDS011;57248;47.320;15.998;2024-03-23T07:23:03;6.78;;;2.10;;
69937;SDS011;57248;47.320;15.998;2024-03-23T07:25:35;4.90;;;1.97;;
69937;SDS011;57248;47.320;15.998;2024-03-23T07:28:07;8.32;;;2.13;;
69937;SDS011;57248;47.320;15.998;2024-03-23T07:30:39;4.82;;;1.50;;
69937;SDS011;57248;47.320;15.998;2024-03-23T07:33:05;5.13;;;1.60;;
69937;SDS011;57248;47.320;15.998;2024-03-23T07:35:38;7.65;;;1.88;;
69937;SDS011;57248;47.320;15.998;2024-03-23T07:38:09;5.68;;;1.55;;
69937;SDS011;57248;47.320;15.998;2024-03-23T07:40:41;5.18;;;1.40;;
69937;SDS011;57248;47.320;15.998;2024-03-23T07:43:15;6.00;;;1.67;;
69937;SDS011;57248;47.320;15.998;2024-03-23T07:45:51;5.28;;;1.23;;
69937;SDS011;57248;47.320;15.998;2024-03-23T07:48:25;5.93;;;1.48;;
69937;SDS011;57248;47.320;15.998;2024-03-23T07:53:32;5.85;;;1.83;;
69937;SDS011;57248;47.320;15.998;2024-03-23T07:56:08;9.13;;;2.10;;
69937;SDS011;57248;47.320;15.998;2024-03-23T07:58:45;7.20;;;2.40;;
69937;SDS011;57248;47.320;15.998;2024-03-23T08:01:17;6.10;;;2.03;;
69937;SDS011;57248;47.320;15.998;2024-03-23T08:03:49;4.95;;;1.42;;
69937;SDS011;57248;47.320;15.998;2024-03-23T08:06:22;5.72;;;1.85;;
69937;SDS011;57248;47.320;15.998;2024-03-23T08:08:55;7.00;;;2.27;;
69937;SDS011;57248;47.320;15.998;2024-03-23T08:11:35;6.90;;;1.88;;
69937;SDS011;57248;47.320;15.998;2024-03-23T08:14:15;4.38;;;2.05;;
69937;SDS011;57248;47.320;15.998;2024-03-23T08:16:46;4.50;;;1.50;;
69937;SDS011;57248;47.320;15.998;2024-03-23T08:19:20;5.47;;;2.10;;
69937;SDS011;57248;47.320;15.998;2024-03-23T08:21:46;7.13;;;2.30;;
69937;SDS011;57248;47.320;15.998;2024-03-23T08:24:20;5.10;;;1.90;;
69937;SDS011;57248;47.320;15.998;2024-03-23T08:26:54;6.18;;;1.90;;
69937;SDS011;57248;47.320;15.998;2024-03-23T08:29:27;5.93;;;2.05;;
69937;SDS011;57248;47.320;15.998;2024-03-23T08:32:00;3.90;;;1.43;;
69937;SDS011;57248;47.320;15.998;2024-03-23T08:34:32;4.28;;;2.05;;
69937;SDS011;57248;47.320;15.998;2024-03-23T08:37:04;3.70;;;1.70;;
69937;SDS011;57248;47.320;15.998;2024-03-23T08:39:36;4.90;;;2.63;;
69937;SDS011;57248;47.320;15.998;2024-03-23T08:42:10;4.57;;;2.53;;
69937;SDS011;57248;47.320;15.998;2024-03-23T08:44:41;7.57;;;2.27;;
69937;SDS011;57248;47.320;15.998;2024-03-23T08:47:17;5.47;;;2.60;;
69937;SDS011;57248;47.320;15.998;2024-03-23T08:49:51;5.50;;;2.42;;
69937;SDS011;57248;47.320;15.998;2024-03-23T08:52:23;5.07;;;2.17;;
69937;SDS011;57248;47.320;15.998;2024-03-23T08:54:48;6.70;;;2.30;;
69937;SDS011;57248;47.320;15.998;2024-03-23T08:57:22;9.48;;;2.40;;
69937;SDS011;57248;47.320;15.998;2024-03-23T08:59:56;6.57;;;2.40;;
69937;SDS011;57248;47.320;15.998;2024-03-23T09:02:28;6.72;;;2.42;;
69937;SDS011;57248;47.320;15.998;2024-03-23T09:05:01;9.43;;;2.67;;
69937;SDS011;57248;47.320;15.998;2024-03-23T09:07:36;10.30;;;2.80;;
69937;SDS011;57248;47.320;15.998;2024-03-23T09:10:08;7.28;;;3.08;;
69937;SDS011;57248;47.320;15.998;2024-03-23T09:12:41;7.13;;;2.75;;
69937;SDS011;57248;47.320;15.998;2024-03-23T09:15:13;5.43;;;3.05;;
69937;SDS011;57248;47.320;15.998;2024-03-23T09:17:44;5.97;;;2.60;;
69937;SDS011;57248;47.320;15.998;2024-03-23T09:20:18;4.60;;;2.35;;
69937;SDS011;57248;47.320;15.998;2024-03-23T09:22:51;4.60;;;2.45;;
69937;SDS011;57248;47.320;15.998;2024-03-23T09:25:23;5.50;;;2.80;;
69937;SDS011;57248;47.320;15.998;2024-03-23T09:27:55;4.78;;;3.50;;
69937;SDS011;57248;47.320;15.998;2024-03-23T09:30:27;4.87;;;3.00;;
69937;SDS011;57248;47.320;15.998;2024-03-23T09:32:59;6.57;;;3.70;;
69937;SDS011;57248;47.320;15.998;2024-03-23T09:35:31;4.90;;;3.13;;
69937;SDS011;57248;47.320;15.998;2024-03-23T09:38:03;5.63;;;3.70;;
69937;SDS011;57248;47.320;15.998;2024-03-23T09:40:38;6.13;;;4.10;;
69937;SDS011;57248;47.320;15.998;2024-03-23T09:43:13;5.50;;;3.90;;
69937;SDS011;57248;47.320;15.998;2024-03-23T09:45:45;5.70;;;3.83;;
69937;SDS011;57248;47.320;15.998;2024-03-23T09:48:18;5.55;;;4.63;;
69937;SDS011;57248;47.320;15.998;2024-03-23T09:50:44;5.72;;;4.00;;
69937;SDS011;57248;47.320;15.998;2024-03-23T09:53:18;5.07;;;4.30;;
69937;SDS011;57248;47.320;15.998;2024-03-23T09:55:52;7.22;;;4.90;;
69937;SDS011;57248;47.320;15.998;2024-03-23T09:58:25;5.75;;;4.45;;
69937;SDS011;57248;47.320;15.998;2024-03-23T10:00:59;7.28;;;4.38;;
69937;SDS011;57248;47.320;15.998;2024-03-23T10:03:31;6.10;;;3.65;;
69937;SDS011;57248;47.320;15.998;2024-03-23T10:06:03;4.83;;;3.50;;
69937;SDS011;57248;47.320;15.998;2024-03-23T10:08:37;5.63;;;3.65;;
69937;SDS011;57248;47.320;15.998;2024-03-23T10:11:12;5.60;;;3.33;;
69937;SDS011;57248;47.320;15.998;2024-03-23T10:13:48;6.07;;;3.80;;
69937;SDS011;57248;47.320;15.998;2024-03-23T10:16:28;5.13;;;3.40;;
69937;SDS011;57248;47.320;15.998;2024-03-23T10:19:01;4.20;;;2.60;;
69937;SDS011;57248;47.320;15.998;2024-03-23T10:21:33;5.07;;;3.10;;
69937;SDS011;57248;47.320;15.998;2024-03-23T10:24:07;4.82;;;2.55;;
69937;SDS011;57248;47.320;15.998;2024-03-23T10:26:41;6.05;;;3.08;;
69937;SDS011;57248;47.320;15.998;2024-03-23T10:29:13;4.90;;;2.40;;
69937;SDS011;57248;47.320;15.998;2024-03-23T10:31:49;4.77;;;3.13;;
69937;SDS011;57248;47.320;15.998;2024-03-23T10:34:26;4.80;;;2.83;;
69937;SDS011;57248;47.320;15.998;2024-03-23T10:36:59;5.20;;;3.42;;
69937;SDS011;57248;47.320;15.998;2024-03-23T10:39:33;8.05;;;3.15;;
69937;SDS011;57248;47.320;15.998;2024-03-23T10:42:10;4.32;;;3.20;;
69937;SDS011;57248;47.320;15.998;2024-03-23T10:44:42;5.17;;;4.07;;
69937;SDS011;57248;47.320;15.998;2024-03-23T10:47:14;5.22;;;3.47;;
69937;SDS011;57248;47.320;15.998;2024-03-23T10:49:39;4.90;;;3.67;;
69937;SDS011;57248;47.320;15.998;2024-03-23T10:52:12;6.57;;;3.20;;
69937;SDS011;57248;47.320;15.998;2024-03-23T10:54:44;4.68;;;3.13;;
69937;SDS011;57248;47.320;15.998;2024-03-23T10:57:21;4.65;;;2.60;;
69937;SDS011;57248;47.320;15.998;2024-03-23T10:59:59;4.53;;;2.95;;
69937;SDS011;57248;47.320;15.998;2024-03-23T11:02:32;4.10;;;2.60;;
69937;SDS011;57248;47.320;15.998;2024-03-23T11:08:02;4.45;;;2.70;;
69937;SDS011;57248;47.320;15.998;2024-03-23T11:10:34;3.83;;;2.35;;
69937;SDS011;57248;47.320;15.998;2024-03-23T11:13:21;4.90;;;3.38;;
69937;SDS011;57248;47.320;15.998;2024-03-23T11:15:54;5.30;;;3.87;;
69937;SDS011;57248;47.320;15.998;2024-03-23T11:18:33;5.80;;;4.03;;
69937;SDS011;57248;47.320;15.998;2024-03-23T11:21:06;5.63;;;4.10;;
69937;SDS011;57248;47.320;15.998;2024-03-23T11:23:39;6.10;;;4.25;;
69937;SDS011;57248;47.320;15.998;2024-03-23T11:26:12;4.70;;;4.22;;
69937;SDS011;57248;47.320;15.998;2024-03-23T11:28:44;7.57;;;4.27;;
69937;SDS011;57248;47.320;15.998;2024-03-23T11:31:16;5.78;;;4.40;;
69937;SDS011;57248;47.320;15.998;2024-03-23T11:34:02;5.05;;;4.30;;
69937;SDS011;57248;47.320;15.998;2024-03-23T11:36:38;7.72;;;4.22;;
69937;SDS011;57248;47.320;15.998;2024-03-23T11:39:16;6.13;;;4.38;;
69937;SDS011;57248;47.320;15.998;2024-03-23T11:41:50;5.30;;;4.60;;
69937;SDS011;57248;47.320;15.998;2024-03-23T11:44:29;5.20;;;4.32;;
69937;SDS011;57248;47.320;15.998;2024-03-23T11:47:08;6.28;;;4.75;;
69937;SDS011;57248;47.320;15.998;2024-03-23T11:49:42;5.35;;;4.57;;
69937;SDS011;57248;47.320;15.998;2024-03-23T11:52:14;5.63;;;3.78;;
69937;SDS011;57248;47.320;15.998;2024-03-23T11:54:48;6.33;;;4.57;;
69937;SDS011;57248;47.320;15.998;2024-03-23T11:57:20;6.45;;;4.25;;
69937;SDS011;57248;47.320;15.998;2024-03-23T11:59:52;4.97;;;4.47;;
69937;SDS011;57248;47.320;15.998;2024-03-23T12:02:24;6.72;;;4.45;;
69937;SDS011;57248;47.320;15.998;2024-03-23T12:04:57;6.40;;;5.20;;
69937;SDS011;57248;47.320;15.998;2024-03-23T12:07:29;5.83;;;4.03;;
69937;SDS011;57248;47.320;15.998;2024-03-23T12:10:04;5.57;;;4.60;;
69937;SDS011;57248;47.320;15.998;2024-03-23T12:12:40;5.47;;;4.95;;
69937;SDS011;57248;47.320;15.998;2024-03-23T12:15:19;5.45;;;4.95;;
69937;SDS011;57248;47.320;15.998;2024-03-23T12:18:05;5.82;;;5.25;;
69937;SDS011;57248;47.320;15.998;2024-03-23T12:20:41;5.90;;;5.30;;
69937;SDS011;57248;47.320;15.998;2024-03-23T12:23:13;6.20;;;4.90;;
69937;SDS011;57248;47.320;15.998;2024-03-23T12:25:46;7.10;;;5.18;;
69937;SDS011;57248;47.320;15.998;2024-03-23T12:28:21;5.35;;;4.65;;
69937;SDS011;57248;47.320;15.998;2024-03-23T12:30:53;6.15;;;4.85;;
69937;SDS011;57248;47.320;15.998;2024-03-23T12:33:26;5.80;;;4.77;;
69937;SDS011;57248;47.320;15.998;2024-03-23T12:36:00;7.60;;;5.70;;
69937;SDS011;57248;47.320;15.998;2024-03-23T12:38:33;7.93;;;5.25;;
69937;SDS011;57248;47.320;15.998;2024-03-23T12:41:05;7.10;;;5.63;;
69937;SDS011;57248;47.320;15.998;2024-03-23T12:43:30;6.73;;;6.03;;
69937;SDS011;57248;47.320;15.998;2024-03-23T12:46:03;7.32;;;6.60;;
69937;SDS011;57248;47.320;15.998;2024-03-23T12:48:35;7.15;;;6.45;;
69937;SDS011;57248;47.320;15.998;2024-03-23T12:51:08;7.30;;;5.78;;
69937;SDS011;57248;47.320;15.998;2024-03-23T12:53:41;6.10;;;5.50;;
69937;SDS011;57248;47.320;15.998;2024-03-23T12:56:13;6.93;;;5.25;;
69937;SDS011;57248;47.320;15.998;2024-03-23T12:58:45;6.07;;;4.40;;
69937;SDS011;57248;47.320;15.998;2024-03-23T13:01:18;5.35;;;4.20;;
69937;SDS011;57248;47.320;15.998;2024-03-23T13:03:51;7.10;;;5.22;;
69937;SDS011;57248;47.320;15.998;2024-03-23T13:06:23;5.77;;;4.60;;
69937;SDS011;57248;47.320;15.998;2024-03-23T13:08:55;6.63;;;5.15;;
69937;SDS011;57248;47.320;15.998;2024-03-23T13:11:27;5.28;;;4.78;;
69937;SDS011;57248;47.320;15.998;2024-03-23T13:14:00;5.13;;;4.63;;
69937;SDS011;57248;47.320;15.998;2024-03-23T13:16:40;5.38;;;4.38;;
69937;SDS011;57248;47.320;15.998;2024-03-23T13:19:13;5.73;;;4.10;;
69937;SDS011;57248;47.320;15.998;2024-03-23T13:21:46;5.72;;;3.72;;
69937;SDS011;57248;47.320;15.998;2024-03-23T13:24:21;5.28;;;4.57;;
69937;SDS011;57248;47.320;15.998;2024-03-23T13:26:54;5.20;;;4.32;;
69937;SDS011;57248;47.320;15.998;2024-03-23T13:29:27;6.88;;;5.07;;
69937;SDS011;57248;47.320;15.998;2024-03-23T13:32:00;4.90;;;3.80;;
69937;SDS011;57248;47.320;15.998;2024-03-23T13:34:32;5.60;;;4.18;;
69937;SDS011;57248;47.320;15.998;2024-03-23T13:37:05;7.50;;;4.05;;
69937;SDS011;57248;47.320;15.998;2024-03-23T13:39:39;5.45;;;3.45;;
69937;SDS011;57248;47.320;15.998;2024-03-23T13:42:11;6.10;;;4.45;;
69937;SDS011;57248;47.320;15.998;2024-03-23T13:44:44;5.50;;;3.73;;
69937;SDS011;57248;47.320;15.998;2024-03-23T13:47:16;8.43;;;3.67;;
69937;SDS011;57248;47.320;15.998;2024-03-23T13:49:49;5.32;;;3.90;;
69937;SDS011;57248;47.320;15.998;2024-03-23T13:52:22;6.00;;;3.92;;
69937;SDS011;57248;47.320;15.998;2024-03-23T13:54:58;5.97;;;3.40;;
69937;SDS011;57248;47.320;15.998;2024-03-23T13:57:30;4.97;;;3.10;;
69937;SDS011;57248;47.320;15.998;2024-03-23T13:59:55;5.63;;;3.63;;
69937;SDS011;57248;47.320;15.998;2024-03-23T14:02:38;5.70;;;3.95;;
69937;SDS011;57248;47.320;15.998;2024-03-23T14:05:10;5.63;;;3.30;;
69937;SDS011;57248;47.320;15.998;2024-03-23T14:07:44;5.03;;;2.90;;
69937;SDS011;57248;47.320;15.998;2024-03-23T14:10:16;6.80;;;3.63;;
69937;SDS011;57248;47.320;15.998;2024-03-23T14:12:49;4.80;;;3.42;;
69937;SDS011;57248;47.320;15.998;2024-03-23T14:15:29;7.13;;;3.47;;
69937;SDS011;57248;47.320;15.998;2024-03-23T14:18:02;5.63;;;3.50;;
69937;SDS011;57248;47.320;15.998;2024-03-23T14:20:35;5.00;;;2.30;;
69937;SDS011;57248;47.320;15.998;2024-03-23T14:23:07;4.88;;;2.20;;
69937;SDS011;57248;47.320;15.998;2024-03-23T14:25:39;6.03;;;2.17;;
69937;SDS011;57248;47.320;15.998;2024-03-23T14:28:07;4.28;;;1.88;;
69937;SDS011;57248;47.320;15.998;2024-03-23T14:30:46;4.30;;;2.13;;
69937;SDS011;57248;47.320;15.998;2024-03-23T14:33:18;4.90;;;2.10;;
69937;SDS011;57248;47.320;15.998;2024-03-23T14:35:52;5.25;;;2.20;;
69937;SDS011;57248;47.320;15.998;2024-03-23T14:38:20;5.30;;;3.00;;
69937;SDS011;57248;47.320;15.998;2024-03-23T14:40:52;6.03;;;3.08;;
69937;SDS011;57248;47.320;15.998;2024-03-23T14:43:25;10.38;;;5.40;;
69937;SDS011;57248;47.320;15.998;2024-03-23T14:46:10;7.50;;;3.50;;
69937;SDS011;57248;47.320;15.998;2024-03-23T14:48:43;6.35;;;2.45;;
69937;SDS011;57248;47.320;15.998;2024-03-23T14:51:11;7.07;;;2.00;;
69937;SDS011;57248;47.320;15.998;2024-03-23T14:53:45;7.53;;;1.70;;
69937;SDS011;57248;47.320;15.998;2024-03-23T14:56:18;3.95;;;1.58;;
69937;SDS011;57248;47.320;15.998;2024-03-23T14:58:54;5.50;;;1.83;;
69937;SDS011;57248;47.320;15.998;2024-03-23T15:01:27;5.10;;;1.80;;
69937;SDS011;57248;47.320;15.998;2024-03-23T15:03:59;4.85;;;1.80;;
69937;SDS011;57248;47.320;15.998;2024-03-23T15:06:32;3.58;;;0.80;;
69937;SDS011;57248;47.320;15.998;2024-03-23T15:09:05;2.38;;;0.57;;
69937;SDS011;57248;47.320;15.998;2024-03-23T15:11:43;1.03;;;0.20;;
69937;SDS011;57248;47.320;15.998;2024-03-23T15:14:15;1.95;;;0.45;;
69937;SDS011;57248;47.320;15.998;2024-03-23T15:16:54;5.03;;;0.35;;
69937;SDS011;57248;47.320;15.998;2024-03-23T15:19:26;1.67;;;0.32;;
69937;SDS011;57248;47.320;15.998;2024-03-23T15:21:58;1.48;;;0.30;;
69937;SDS011;57248;47.320;15.998;2024-03-23T15:24:32;1.73;;;0.30;;
69937;SDS011;57248;47.320;15.998;2024-03-23T15:27:06;1.27;;;0.20;;
69937;SDS011;57248;47.320;15.998;2024-03-23T15:29:42;2.72;;;0.10;;
69937;SDS011;57248;47.320;15.998;2024-03-23T15:32:10;0.52;;;0.10;;
69937;SDS011;57248;47.320;15.998;2024-03-23T15:34:43;0.88;;;0.10;;
69937;SDS011;57248;47.320;15.998;2024-03-23T15:37:16;0.33;;;0.00;;
69937;SDS011;57248;47.320;15.998;2024-03-23T15:39:50;0.40;;;0.00;;
69937;SDS011;57248;47.320;15.998;2024-03-23T15:42:25;0.40;;;0.00;;
69937;SDS011;57248;47.320;15.998;2024-03-23T15:44:57;0.35;;;0.05;;
69937;SDS011;57248;47.320;15.998;2024-03-23T15:47:30;0.10;;;0.00;;
69937;SDS011;57248;47.320;15.998;2024-03-23T15:50:02;0.20;;;0.00;;
69937;SDS011;57248;47.320;15.998;2024-03-23T15:52:40;2.17;;;0.00;;
69937;SDS011;57248;47.320;15.998;2024-03-23T15:55:13;0.20;;;0.00;;
69937;SDS011;57248;47.320;15.998;2024-03-23T15:57:46;0.30;;;0.00;;
69937;SDS011;57248;47.320;15.998;2024-03-23T16:00:18;0.22;;;0.00;;
69937;SDS011;57248;47.320;15.998;2024-03-23T16:02:50;0.20;;;0.00;;
69937;SDS011;57248;47.320;15.998;2024-03-23T16:05:26;0.40;;;0.00;;